createdAt,value
2017-09-21T00:00:44.522Z,99.90
2017-09-21T00:03:50.272Z,99.90
2017-09-21T00:06:55.272Z,99.90
2017-09-21T00:10:00.866Z,99.70
2017-09-21T00:13:05.727Z,99.70
2017-09-21T00:16:10.903Z,99.20
2017-09-21T00:19:16.888Z,99.00
2017-09-21T00:22:22.336Z,99.00
2017-09-21T00:25:28.756Z,99.80
2017-09-21T00:28:34.634Z,99.30
2017-09-21T00:31:39.660Z,99.20
2017-09-21T00:34:44.832Z,99.00
2017-09-21T00:37:52.634Z,99.10
2017-09-21T00:40:58.088Z,98.90
2017-09-21T00:44:02.942Z,98.80
2017-09-21T00:47:07.875Z,98.90
2017-09-21T00:50:13.035Z,99.10
2017-09-21T00:53:18.706Z,99.70
2017-09-21T00:56:24.427Z,99.20
2017-09-21T00:59:32.091Z,99.20
2017-09-21T01:02:37.996Z,99.50
2017-09-21T01:05:43.550Z,99.20
2017-09-21T01:08:48.651Z,99.40
2017-09-21T01:11:54.204Z,99.30
2017-09-21T01:14:59.076Z,99.30
2017-09-21T01:18:04.144Z,99.40
2017-09-21T01:21:09.616Z,99.30
2017-09-21T01:24:16.119Z,99.20
2017-09-21T01:27:22.755Z,99.20
2017-09-21T01:30:28.656Z,99.40
2017-09-21T01:33:34.199Z,99.80
2017-09-21T01:36:41.087Z,99.70
2017-09-21T01:39:46.482Z,99.60
2017-09-21T01:42:52.061Z,99.60
2017-09-21T01:45:59.629Z,99.50
2017-09-21T01:49:04.565Z,99.90
2017-09-21T01:52:10.170Z,99.80
2017-09-21T01:55:15.141Z,99.60
2017-09-21T01:58:21.555Z,99.50
2017-09-21T02:01:28.208Z,99.70
2017-09-21T02:04:33.539Z,99.90
2017-09-21T02:07:39.740Z,99.90
2017-09-21T02:10:46.172Z,99.90
2017-09-21T02:13:52.562Z,99.90
2017-09-21T02:16:57.672Z,99.40
2017-09-21T02:20:03.805Z,99.50
2017-09-21T02:23:09.288Z,99.50
2017-09-21T02:26:16.079Z,99.50
2017-09-21T02:29:25.367Z,99.50
2017-09-21T02:32:31.155Z,99.80
2017-09-21T02:35:36.502Z,99.90
2017-09-21T02:38:41.744Z,99.90
2017-09-21T02:41:52.568Z,99.90
2017-09-21T02:44:57.962Z,99.60
2017-09-21T02:48:03.413Z,99.60
2017-09-21T02:51:09.235Z,99.90
2017-09-21T02:54:16.127Z,99.80
2017-09-21T02:57:21.323Z,99.90
2017-09-21T03:00:26.679Z,99.60
2017-09-21T03:03:31.511Z,99.60
2017-09-21T03:06:39.307Z,99.50
2017-09-21T03:09:46.300Z,99.20
2017-09-21T03:12:53.412Z,99.10
2017-09-21T03:15:59.015Z,99.20
2017-09-21T03:19:04.255Z,99.40
2017-09-21T03:22:09.475Z,99.30
2017-09-21T03:25:14.434Z,99.20
2017-09-21T03:28:24.323Z,99.60
2017-09-21T03:31:29.388Z,99.60
2017-09-21T03:34:34.863Z,99.90
2017-09-21T03:37:41.379Z,99.50
2017-09-21T03:40:50.844Z,99.60
2017-09-21T03:43:57.428Z,99.70
2017-09-21T03:47:03.992Z,99.30
2017-09-21T03:50:08.797Z,99.30
2017-09-21T03:53:14.431Z,99.50
2017-09-21T03:56:20.931Z,99.50
2017-09-21T03:59:26.413Z,99.40
2017-09-21T04:02:31.611Z,99.20
2017-09-21T04:05:36.717Z,99.30
2017-09-21T04:08:43.309Z,99.40
2017-09-21T04:11:48.979Z,99.80
2017-09-21T04:14:59.127Z,99.80
2017-09-21T04:18:04.576Z,99.90
2017-09-21T04:21:10.040Z,99.60
2017-09-21T04:24:15.772Z,99.40
2017-09-21T04:27:22.331Z,99.50
2017-09-21T04:30:30.704Z,99.90
2017-09-21T04:33:36.483Z,99.90
2017-09-21T04:36:42.539Z,99.60
2017-09-21T04:39:48.127Z,99.80
2017-09-21T04:42:56.187Z,99.80
2017-09-21T04:46:02.640Z,99.90
2017-09-21T04:49:07.451Z,99.90
2017-09-21T04:52:14.375Z,99.90
2017-09-21T04:55:19.726Z,99.90
2017-09-21T04:58:26.074Z,99.90
2017-09-21T05:01:30.970Z,99.90
2017-09-21T05:04:35.929Z,99.90
2017-09-21T05:07:42.247Z,99.90
2017-09-21T05:10:47.103Z,99.90
2017-09-21T05:13:51.897Z,99.90
2017-09-21T05:16:56.869Z,99.90
2017-09-21T05:20:02.435Z,99.90
2017-09-21T05:23:08.455Z,99.90
2017-09-21T05:26:14.576Z,99.90
2017-09-21T05:29:20.028Z,99.90
2017-09-21T05:32:28.264Z,99.90
2017-09-21T05:35:33.474Z,99.90
2017-09-21T05:38:38.552Z,99.90
2017-09-21T05:41:48.132Z,99.90
2017-09-21T05:44:55.255Z,99.90
2017-09-21T05:48:00.815Z,99.90
2017-09-21T05:51:06.591Z,99.90
2017-09-21T05:54:16.701Z,99.90
2017-09-21T05:57:21.528Z,99.90
2017-09-21T06:00:27.252Z,99.90
2017-09-21T06:03:32.491Z,99.90
2017-09-21T06:06:37.700Z,99.90
2017-09-21T06:09:43.573Z,99.90
2017-09-21T06:12:49.243Z,99.90
2017-09-21T06:15:58.704Z,99.90
2017-09-21T06:19:04.467Z,99.90
2017-09-21T06:22:12.478Z,99.90
2017-09-21T06:25:18.041Z,99.90
2017-09-21T06:28:24.915Z,99.90
2017-09-21T06:31:29.840Z,99.90
2017-09-21T06:34:35.377Z,99.90
2017-09-21T06:37:45.620Z,99.90
2017-09-21T06:40:53.932Z,99.90
2017-09-21T06:43:59.201Z,99.90
2017-09-21T06:47:04.567Z,99.90
2017-09-21T06:50:09.999Z,99.90
2017-09-21T06:53:14.920Z,99.90
2017-09-21T06:56:20.236Z,99.90
2017-09-21T06:59:25.449Z,99.90
2017-09-21T07:02:31.735Z,99.90
2017-09-21T07:05:37.163Z,99.90
2017-09-21T07:08:42.408Z,99.90
2017-09-21T07:11:47.943Z,99.90
2017-09-21T07:14:53.240Z,99.90
2017-09-21T07:17:58.728Z,99.90
2017-09-21T07:21:10.183Z,99.90
2017-09-21T07:24:15.335Z,99.90
2017-09-21T07:27:20.749Z,99.90
2017-09-21T07:30:25.643Z,99.90
2017-09-21T07:33:49.972Z,99.90
2017-09-21T07:36:55.732Z,99.80
2017-09-21T07:40:00.841Z,99.70
2017-09-21T07:43:05.715Z,99.90
2017-09-21T07:46:11.696Z,99.90
2017-09-21T07:49:18.421Z,99.90
2017-09-21T07:52:23.745Z,99.70
2017-09-21T07:55:29.176Z,99.90
2017-09-21T07:58:34.315Z,99.50
2017-09-21T08:01:39.967Z,99.90
2017-09-21T08:04:45.733Z,99.90
2017-09-21T08:07:52.188Z,99.90
2017-09-21T08:10:57.105Z,98.70
2017-09-21T08:14:02.536Z,98.20
2017-09-21T08:17:07.952Z,98.20
2017-09-21T08:20:12.732Z,98.40
2017-09-21T08:23:17.771Z,98.10
2017-09-21T08:26:22.948Z,97.40
2017-09-21T08:29:28.082Z,98.10
2017-09-21T08:32:33.936Z,98.50
2017-09-21T08:35:39.352Z,98.40
2017-09-21T08:38:44.139Z,98.90
2017-09-21T08:41:49.820Z,98.00
2017-09-21T08:44:55.976Z,97.80
2017-09-21T08:48:01.631Z,96.50
2017-09-21T08:51:12.055Z,97.40
2017-09-21T08:54:17.898Z,97.40
2017-09-21T08:57:22.791Z,97.00
2017-09-21T09:00:27.911Z,98.20
2017-09-21T09:03:33.532Z,97.90
2017-09-21T09:06:38.792Z,97.50
2017-09-21T09:09:44.403Z,97.10
2017-09-21T09:12:49.403Z,96.30
2017-09-21T09:15:54.631Z,97.10
2017-09-21T09:19:01.739Z,95.00
2017-09-21T09:22:07.193Z,94.70
2017-09-21T09:25:12.302Z,94.70
2017-09-21T09:28:18.840Z,95.60
2017-09-21T09:31:23.746Z,95.40
2017-09-21T09:34:30.100Z,95.70
2017-09-21T09:37:35.619Z,95.80
2017-09-21T09:40:40.628Z,95.60
2017-09-21T09:43:46.182Z,95.90
2017-09-21T09:46:51.836Z,95.00
2017-09-21T09:49:57.000Z,96.20
2017-09-21T09:53:01.767Z,94.70
2017-09-21T09:56:06.763Z,93.10
2017-09-21T09:59:11.580Z,94.00
2017-09-21T10:02:17.143Z,94.90
2017-09-21T10:05:22.643Z,93.30
2017-09-21T10:08:27.852Z,93.40
2017-09-21T10:11:32.639Z,92.50
2017-09-21T10:14:42.100Z,92.10
2017-09-21T10:17:47.404Z,92.00
2017-09-21T10:20:52.578Z,92.30
2017-09-21T10:23:58.351Z,91.90
2017-09-21T10:27:03.667Z,91.70
2017-09-21T10:30:08.964Z,90.50
2017-09-21T10:33:15.048Z,90.60
2017-09-21T10:36:20.783Z,89.80
2017-09-21T10:39:25.686Z,90.00
2017-09-21T10:42:32.050Z,89.60
2017-09-21T10:45:37.376Z,89.60
2017-09-21T10:48:42.999Z,88.80
2017-09-21T10:51:49.119Z,90.20
2017-09-21T10:54:54.167Z,90.20
2017-09-21T10:57:59.200Z,88.10
2017-09-21T11:01:04.139Z,88.20
2017-09-21T11:04:09.792Z,89.70
2017-09-21T11:07:16.548Z,84.90
2017-09-21T11:10:22.554Z,88.00
2017-09-21T11:13:28.005Z,88.00
2017-09-21T11:16:33.256Z,86.50
2017-09-21T11:19:40.548Z,83.00
2017-09-21T11:22:45.988Z,82.70
2017-09-21T11:25:50.892Z,81.30
2017-09-21T11:28:55.999Z,81.50
2017-09-21T11:32:00.727Z,82.50
2017-09-21T11:35:14.027Z,80.20
2017-09-21T11:38:19.396Z,79.90
2017-09-21T11:41:25.078Z,82.90
2017-09-21T11:44:29.855Z,79.60
2017-09-21T11:47:35.527Z,79.90
2017-09-21T11:50:41.232Z,81.10
2017-09-21T11:53:46.426Z,81.10
2017-09-21T11:56:51.844Z,78.40
2017-09-21T12:00:06.203Z,77.90
2017-09-21T12:03:11.819Z,78.00
2017-09-21T12:06:16.776Z,77.00
2017-09-21T12:09:22.552Z,76.90
2017-09-21T12:12:28.184Z,76.70
2017-09-21T12:15:33.937Z,77.80
2017-09-21T12:18:39.135Z,77.80
2017-09-21T12:21:44.693Z,81.40
2017-09-21T12:24:50.607Z,77.40
2017-09-21T12:27:55.365Z,77.40
2017-09-21T12:31:00.860Z,76.70
2017-09-21T12:34:05.844Z,75.00
2017-09-21T12:37:11.340Z,74.10
2017-09-21T12:40:16.631Z,74.20
2017-09-21T12:43:22.304Z,72.50
2017-09-21T12:46:27.829Z,75.80
2017-09-21T12:49:32.844Z,73.10
2017-09-21T12:52:39.096Z,71.70
2017-09-21T12:55:44.296Z,71.80
2017-09-21T12:58:50.001Z,70.70
2017-09-21T13:01:57.487Z,70.60
2017-09-21T13:05:02.433Z,69.10
2017-09-21T13:08:07.389Z,69.60
2017-09-21T13:11:19.669Z,66.30
2017-09-21T13:14:25.192Z,67.70
2017-09-21T13:17:31.404Z,67.70
2017-09-21T13:20:38.803Z,65.60
2017-09-21T13:23:43.756Z,66.80
2017-09-21T13:26:48.909Z,66.10
2017-09-21T13:29:54.588Z,64.80
2017-09-21T13:33:00.949Z,62.40
2017-09-21T13:36:05.671Z,62.40
2017-09-21T13:39:11.316Z,61.60
2017-09-21T13:42:16.435Z,58.70
2017-09-21T13:45:22.004Z,60.40
2017-09-21T13:48:27.157Z,60.40
2017-09-21T13:51:32.292Z,58.20
2017-09-21T13:54:37.172Z,59.40
2017-09-21T13:57:42.360Z,59.00
2017-09-21T14:00:48.036Z,59.00
2017-09-21T14:03:53.241Z,59.60
2017-09-21T14:06:59.326Z,57.00
2017-09-21T14:10:05.741Z,58.30
2017-09-21T14:13:11.253Z,58.30
2017-09-21T14:16:16.917Z,58.50
2017-09-21T14:19:22.723Z,54.40
2017-09-21T14:22:28.124Z,54.30
2017-09-21T14:25:33.789Z,56.50
2017-09-21T14:28:39.009Z,56.40
2017-09-21T14:31:44.526Z,57.60
2017-09-21T14:34:50.327Z,58.20
2017-09-21T14:37:56.223Z,52.90
2017-09-21T14:41:02.063Z,52.80
2017-09-21T14:44:08.533Z,53.90
2017-09-21T14:47:13.904Z,52.90
2017-09-21T14:50:18.914Z,53.60
2017-09-21T14:53:24.593Z,55.20
2017-09-21T14:56:30.256Z,56.10
2017-09-21T14:59:35.039Z,56.40
2017-09-21T15:02:40.155Z,56.60
2017-09-21T15:05:45.043Z,56.00
2017-09-21T15:08:50.280Z,57.60
2017-09-21T15:11:57.988Z,56.80
2017-09-21T15:15:02.792Z,55.80
2017-09-21T15:18:08.175Z,56.60
2017-09-21T15:21:13.129Z,56.60
2017-09-21T15:24:19.312Z,58.40
2017-09-21T15:27:25.716Z,57.20
2017-09-21T15:30:30.421Z,58.20
2017-09-21T15:33:35.788Z,56.50
2017-09-21T15:36:41.295Z,57.20
2017-09-21T15:39:46.202Z,58.50
2017-09-21T15:42:51.014Z,56.30
2017-09-21T15:45:56.815Z,57.50
2017-09-21T15:49:04.476Z,56.40
2017-09-21T15:52:10.859Z,58.50
2017-09-21T15:55:17.195Z,57.60
2017-09-21T15:58:22.424Z,57.70
2017-09-21T16:01:27.372Z,57.60
2017-09-21T16:04:32.186Z,59.50
2017-09-21T16:07:37.604Z,62.00
2017-09-21T16:10:42.432Z,61.10
2017-09-21T16:13:54.027Z,62.20
2017-09-21T16:16:59.047Z,63.50
2017-09-21T16:20:08.031Z,63.80
2017-09-21T16:23:12.746Z,64.30
2017-09-21T16:26:18.052Z,65.20
2017-09-21T16:29:24.419Z,65.40
2017-09-21T16:32:29.396Z,65.30
2017-09-21T16:35:34.407Z,65.80
2017-09-21T16:38:39.931Z,65.80
2017-09-21T16:41:44.965Z,66.30
2017-09-21T16:44:50.143Z,66.70
2017-09-21T16:47:55.967Z,67.90
2017-09-21T16:51:01.560Z,67.90
2017-09-21T16:54:07.007Z,68.70
2017-09-21T16:57:12.559Z,68.60
2017-09-21T17:00:17.666Z,69.40
2017-09-21T17:03:23.003Z,69.50
2017-09-21T17:09:11.372Z,70.10
2017-09-21T17:12:17.546Z,70.90
2017-09-21T17:15:23.976Z,73.70
2017-09-21T17:18:29.131Z,73.70
2017-09-21T17:21:35.265Z,77.50
2017-09-21T17:24:41.849Z,77.50
2017-09-21T17:27:47.306Z,79.50
2017-09-21T17:30:54.091Z,81.10
2017-09-21T17:34:01.155Z,82.40
2017-09-21T17:37:07.300Z,83.60
2017-09-21T17:40:12.632Z,83.60
2017-09-21T17:43:17.828Z,84.70
2017-09-21T17:46:23.224Z,85.40
2017-09-21T17:49:28.087Z,86.20
2017-09-21T17:52:33.176Z,86.90
2017-09-21T17:55:38.248Z,87.60
2017-09-21T17:58:43.616Z,88.40
2017-09-21T18:01:48.513Z,89.10
2017-09-21T18:04:53.135Z,89.90
2017-09-21T18:07:59.110Z,90.40
2017-09-21T18:11:05.207Z,90.40
2017-09-21T18:14:12.128Z,90.40
2017-09-21T18:17:18.848Z,91.10
2017-09-21T18:20:23.944Z,90.80
2017-09-21T18:23:28.842Z,91.30
2017-09-21T18:26:34.788Z,91.20
2017-09-21T18:29:40.257Z,91.50
2017-09-21T18:32:49.288Z,91.90
2017-09-21T18:35:55.290Z,92.10
2017-09-21T18:39:01.355Z,92.20
2017-09-21T18:42:06.227Z,92.20
2017-09-21T18:45:11.965Z,92.30
2017-09-21T18:48:17.412Z,92.30
2017-09-21T18:51:22.976Z,92.50
2017-09-21T18:54:27.888Z,92.80
2017-09-21T18:57:32.997Z,92.60
2017-09-21T19:00:41.212Z,92.50
2017-09-21T19:03:46.465Z,92.30
2017-09-21T19:06:51.592Z,92.30
2017-09-21T19:09:56.367Z,92.20
2017-09-21T19:13:01.880Z,92.20
2017-09-21T19:16:06.739Z,92.20
2017-09-21T19:19:12.971Z,92.80
2017-09-21T19:22:18.785Z,92.80
2017-09-21T19:25:23.532Z,93.00
2017-09-21T19:28:29.241Z,93.00
2017-09-21T19:31:35.580Z,93.60
2017-09-21T19:34:41.026Z,93.60
2017-09-21T19:37:46.616Z,93.90
2017-09-21T19:40:51.981Z,94.10
2017-09-21T19:43:56.989Z,94.10
2017-09-21T19:47:04.083Z,94.40
2017-09-21T19:50:09.912Z,94.60
2017-09-21T19:53:16.036Z,94.70
2017-09-21T19:56:22.215Z,94.70
2017-09-21T19:59:28.056Z,94.70
2017-09-21T20:02:33.717Z,94.90
2017-09-21T20:05:38.876Z,95.10
2017-09-21T20:08:45.077Z,95.40
2017-09-21T20:11:50.122Z,95.40
2017-09-21T20:14:58.090Z,95.30
2017-09-21T20:18:09.816Z,95.30
2017-09-21T20:21:14.868Z,95.30
2017-09-21T20:24:20.259Z,95.50
2017-09-21T20:27:26.632Z,95.60
2017-09-21T20:30:33.205Z,95.60
2017-09-21T20:33:38.305Z,95.60
2017-09-21T20:36:43.821Z,95.60
2017-09-21T20:39:49.437Z,95.60
2017-09-21T20:42:54.727Z,96.10
2017-09-21T20:45:59.489Z,96.30
2017-09-21T20:49:06.054Z,97.00
2017-09-21T20:52:11.160Z,96.90
2017-09-21T20:55:16.311Z,97.30
2017-09-21T20:58:21.048Z,97.20
2017-09-21T21:01:26.939Z,96.80
2017-09-21T21:04:32.649Z,97.10
2017-09-21T21:07:37.898Z,96.70
2017-09-21T21:10:43.395Z,96.40
2017-09-21T21:13:48.763Z,96.50
2017-09-21T21:16:53.528Z,96.50
2017-09-21T21:19:58.955Z,96.50
2017-09-21T21:23:06.395Z,96.30
2017-09-21T21:26:11.847Z,96.50
2017-09-21T21:29:17.447Z,97.00
2017-09-21T21:32:22.552Z,97.10
2017-09-21T21:35:28.645Z,96.80
2017-09-21T21:38:34.051Z,96.70
2017-09-21T21:41:39.080Z,97.20
2017-09-21T21:44:44.631Z,97.40
2017-09-21T21:47:50.297Z,97.70
2017-09-21T21:51:01.507Z,97.70
2017-09-21T21:54:07.742Z,97.70
2017-09-21T21:57:13.324Z,97.70
2017-09-21T22:00:19.693Z,98.10
2017-09-21T22:03:24.804Z,98.00
2017-09-21T22:06:30.757Z,98.00
2017-09-21T22:09:36.171Z,98.00
2017-09-21T22:12:52.678Z,97.90
2017-09-21T22:15:58.176Z,98.00
2017-09-21T22:19:03.304Z,97.90
2017-09-21T22:22:09.723Z,97.90
2017-09-21T22:25:15.856Z,98.00
2017-09-21T22:28:22.218Z,98.00
2017-09-21T22:31:27.436Z,97.90
2017-09-21T22:34:33.179Z,98.20
2017-09-21T22:37:38.792Z,98.50
2017-09-21T22:40:45.594Z,99.10
2017-09-21T22:43:50.446Z,99.10
2017-09-21T22:46:56.165Z,99.30
2017-09-21T22:50:01.263Z,99.50
2017-09-21T22:53:06.095Z,99.50
2017-09-21T22:56:11.797Z,99.40
2017-09-21T22:59:17.444Z,99.50
2017-09-21T23:02:22.678Z,99.80
2017-09-21T23:05:28.202Z,99.60
2017-09-21T23:08:34.439Z,99.40
2017-09-21T23:11:39.655Z,99.40
2017-09-21T23:14:45.504Z,99.40
2017-09-21T23:17:50.420Z,99.70
2017-09-21T23:20:55.795Z,99.80
2017-09-21T23:24:02.207Z,99.20
2017-09-21T23:27:07.911Z,99.20
2017-09-21T23:30:13.138Z,99.40
2017-09-21T23:33:18.883Z,99.30
2017-09-21T23:36:24.505Z,99.20
2017-09-21T23:39:29.552Z,99.20
2017-09-21T23:42:39.215Z,98.40
2017-09-21T23:45:44.598Z,99.00
2017-09-21T23:48:49.428Z,99.50
2017-09-21T23:51:56.044Z,99.70
2017-09-21T23:55:01.701Z,99.80
2017-09-21T23:58:06.891Z,99.60
